sensor_id;sensor_type;location;lat;lon;timestamp;temperature;humidity
38183;DHT22;23991;52.430;10.586;2022-12-05T00:01:39;2.30;91.40
38183;DHT22;23991;52.430;10.586;2022-12-05T00:04:09;2.20;91.40
38183;DHT22;23991;52.430;10.586;2022-12-05T00:06:40;2.30;91.40
38183;DHT22;23991;52.430;10.586;2022-12-05T00:09:07;2.30;91.30
38183;DHT22;23991;52.430;10.586;2022-12-05T00:11:39;2.30;91.40
38183;DHT22;23991;52.430;10.586;2022-12-05T00:14:06;2.30;91.30
38183;DHT22;23991;52.430;10.586;2022-12-05T00:16:34;2.30;91.30
38183;DHT22;23991;52.430;10.586;2022-12-05T00:19:01;2.30;91.30
38183;DHT22;23991;52.430;10.586;2022-12-05T00:21:28;2.30;91.30
38183;DHT22;23991;52.430;10.586;2022-12-05T00:23:55;2.30;91.30
38183;DHT22;23991;52.430;10.586;2022-12-05T00:26:22;2.30;91.30
38183;DHT22;23991;52.430;10.586;2022-12-05T00:28:48;2.30;91.30
38183;DHT22;23991;52.430;10.586;2022-12-05T00:31:16;2.30;91.30
38183;DHT22;23991;52.430;10.586;2022-12-05T00:33:43;2.30;91.40
38183;DHT22;23991;52.430;10.586;2022-12-05T00:36:17;2.30;91.40
38183;DHT22;23991;52.430;10.586;2022-12-05T00:38:43;2.30;91.40
38183;DHT22;23991;52.430;10.586;2022-12-05T00:41:15;2.30;91.40
38183;DHT22;23991;52.430;10.586;2022-12-05T00:43:41;2.30;91.40
38183;DHT22;23991;52.430;10.586;2022-12-05T00:46:10;2.30;91.40
38183;DHT22;23991;52.430;10.586;2022-12-05T00:48:36;2.30;91.40
38183;DHT22;23991;52.430;10.586;2022-12-05T00:51:14;2.30;91.40
38183;DHT22;23991;52.430;10.586;2022-12-05T00:53:40;2.30;91.40
38183;DHT22;23991;52.430;10.586;2022-12-05T00:56:15;2.30;91.50
38183;DHT22;23991;52.430;10.586;2022-12-05T00:58:41;2.30;91.40
38183;DHT22;23991;52.430;10.586;2022-12-05T01:01:14;2.30;91.40
38183;DHT22;23991;52.430;10.586;2022-12-05T01:03:41;2.30;91.50
38183;DHT22;23991;52.430;10.586;2022-12-05T01:06:07;2.30;91.50
38183;DHT22;23991;52.430;10.586;2022-12-05T01:08:36;2.30;91.50
38183;DHT22;23991;52.430;10.586;2022-12-05T01:11:03;2.30;91.50
38183;DHT22;23991;52.430;10.586;2022-12-05T01:13:29;2.30;91.50
38183;DHT22;23991;52.430;10.586;2022-12-05T01:15:55;2.30;91.50
38183;DHT22;23991;52.430;10.586;2022-12-05T01:18:21;2.30;91.50
38183;DHT22;23991;52.430;10.586;2022-12-05T01:20:48;2.30;91.50
38183;DHT22;23991;52.430;10.586;2022-12-05T01:23:14;2.30;91.50
38183;DHT22;23991;52.430;10.586;2022-12-05T01:25:41;2.30;91.50
38183;DHT22;23991;52.430;10.586;2022-12-05T01:28:08;2.40;91.50
38183;DHT22;23991;52.430;10.586;2022-12-05T01:30:38;2.30;91.50
38183;DHT22;23991;52.430;10.586;2022-12-05T01:33:04;2.30;91.50
38183;DHT22;23991;52.430;10.586;2022-12-05T01:35:31;2.40;91.50
38183;DHT22;23991;52.430;10.586;2022-12-05T01:37:57;2.40;91.50
38183;DHT22;23991;52.430;10.586;2022-12-05T01:40:23;2.40;91.50
38183;DHT22;23991;52.430;10.586;2022-12-05T01:42:54;2.40;91.50
38183;DHT22;23991;52.430;10.586;2022-12-05T01:45:30;2.40;91.50
38183;DHT22;23991;52.430;10.586;2022-12-05T01:47:58;2.40;91.60
38183;DHT22;23991;52.430;10.586;2022-12-05T01:50:24;2.40;91.60
38183;DHT22;23991;52.430;10.586;2022-12-05T01:52:50;2.40;91.60
38183;DHT22;23991;52.430;10.586;2022-12-05T01:55:17;2.40;91.60
38183;DHT22;23991;52.430;10.586;2022-12-05T01:57:44;2.40;91.60
38183;DHT22;23991;52.430;10.586;2022-12-05T02:00:15;2.40;91.60
38183;DHT22;23991;52.430;10.586;2022-12-05T02:02:45;2.40;91.50
38183;DHT22;23991;52.430;10.586;2022-12-05T02:05:17;2.40;91.60
38183;DHT22;23991;52.430;10.586;2022-12-05T02:07:45;2.40;91.60
38183;DHT22;23991;52.430;10.586;2022-12-05T02:10:11;2.40;91.60
38183;DHT22;23991;52.430;10.586;2022-12-05T02:12:37;2.40;91.60
38183;DHT22;23991;52.430;10.586;2022-12-05T02:18:03;2.40;91.60
38183;DHT22;23991;52.430;10.586;2022-12-05T02:29:16;2.40;91.60
38183;DHT22;23991;52.430;10.586;2022-12-05T02:31:52;2.50;91.60
38183;DHT22;23991;52.430;10.586;2022-12-05T02:34:47;2.40;91.70
38183;DHT22;23991;52.430;10.586;2022-12-05T02:37:25;2.50;91.70
38183;DHT22;23991;52.430;10.586;2022-12-05T02:45:13;2.40;91.60
38183;DHT22;23991;52.430;10.586;2022-12-05T02:47:45;2.40;91.60
38183;DHT22;23991;52.430;10.586;2022-12-05T02:50:14;2.40;91.60
38183;DHT22;23991;52.430;10.586;2022-12-05T02:52:42;2.40;91.60
38183;DHT22;23991;52.430;10.586;2022-12-05T02:55:10;2.40;91.60
38183;DHT22;23991;52.430;10.586;2022-12-05T02:57:37;2.40;91.60
38183;DHT22;23991;52.430;10.586;2022-12-05T03:00:05;2.40;91.60
38183;DHT22;23991;52.430;10.586;2022-12-05T03:02:32;2.40;91.60
38183;DHT22;23991;52.430;10.586;2022-12-05T03:07:37;2.40;91.60
38183;DHT22;23991;52.430;10.586;2022-12-05T03:10:06;2.40;91.60
38183;DHT22;23991;52.430;10.586;2022-12-05T03:12:39;2.40;91.50
38183;DHT22;23991;52.430;10.586;2022-12-05T03:15:26;2.40;91.60
38183;DHT22;23991;52.430;10.586;2022-12-05T03:18:05;2.40;91.50
38183;DHT22;23991;52.430;10.586;2022-12-05T03:20:47;2.50;91.50
38183;DHT22;23991;52.430;10.586;2022-12-05T03:23:24;2.50;91.50
38183;DHT22;23991;52.430;10.586;2022-12-05T03:26:23;2.50;91.60
38183;DHT22;23991;52.430;10.586;2022-12-05T03:34:17;2.40;91.60
38183;DHT22;23991;52.430;10.586;2022-12-05T03:36:48;2.40;91.60
38183;DHT22;23991;52.430;10.586;2022-12-05T03:39:21;2.40;91.60
38183;DHT22;23991;52.430;10.586;2022-12-05T03:42:27;2.50;91.60
38183;DHT22;23991;52.430;10.586;2022-12-05T03:44:58;2.40;91.60
38183;DHT22;23991;52.430;10.586;2022-12-05T03:50:29;2.50;91.60
38183;DHT22;23991;52.430;10.586;2022-12-05T03:53:18;2.40;91.60
38183;DHT22;23991;52.430;10.586;2022-12-05T03:55:47;2.50;91.70
38183;DHT22;23991;52.430;10.586;2022-12-05T03:58:21;2.50;91.60
38183;DHT22;23991;52.430;10.586;2022-12-05T04:00:52;2.50;91.70
38183;DHT22;23991;52.430;10.586;2022-12-05T04:03:32;2.50;91.70
38183;DHT22;23991;52.430;10.586;2022-12-05T04:06:16;2.50;91.70
38183;DHT22;23991;52.430;10.586;2022-12-05T04:08:47;2.50;91.60
38183;DHT22;23991;52.430;10.586;2022-12-05T04:11:17;2.50;91.60
38183;DHT22;23991;52.430;10.586;2022-12-05T04:16:23;2.50;91.60
38183;DHT22;23991;52.430;10.586;2022-12-05T04:19:16;2.50;91.60
38183;DHT22;23991;52.430;10.586;2022-12-05T04:21:51;2.50;91.60
38183;DHT22;23991;52.430;10.586;2022-12-05T04:24:27;2.50;91.60
38183;DHT22;23991;52.430;10.586;2022-12-05T04:30:33;2.50;91.60
38183;DHT22;23991;52.430;10.586;2022-12-05T04:33:17;2.50;91.60
38183;DHT22;23991;52.430;10.586;2022-12-05T04:35:55;2.50;91.60
38183;DHT22;23991;52.430;10.586;2022-12-05T04:38:31;2.50;91.60
38183;DHT22;23991;52.430;10.586;2022-12-05T04:41:03;2.40;91.60
38183;DHT22;23991;52.430;10.586;2022-12-05T04:43:36;2.50;91.60
38183;DHT22;23991;52.430;10.586;2022-12-05T04:46:07;2.50;91.50
38183;DHT22;23991;52.430;10.586;2022-12-05T04:48:37;2.40;91.50
38183;DHT22;23991;52.430;10.586;2022-12-05T04:51:05;2.50;91.50
38183;DHT22;23991;52.430;10.586;2022-12-05T04:53:32;2.40;91.50
38183;DHT22;23991;52.430;10.586;2022-12-05T04:55:59;2.50;91.50
38183;DHT22;23991;52.430;10.586;2022-12-05T04:58:27;2.40;91.50
38183;DHT22;23991;52.430;10.586;2022-12-05T05:01:12;2.50;91.50
38183;DHT22;23991;52.430;10.586;2022-12-05T05:03:55;2.50;91.40
38183;DHT22;23991;52.430;10.586;2022-12-05T05:06:23;2.50;91.40
38183;DHT22;23991;52.430;10.586;2022-12-05T05:08:56;2.40;91.40
38183;DHT22;23991;52.430;10.586;2022-12-05T05:11:28;2.50;91.40
38183;DHT22;23991;52.430;10.586;2022-12-05T05:13:54;2.50;91.30
38183;DHT22;23991;52.430;10.586;2022-12-05T05:16:28;2.50;91.30
38183;DHT22;23991;52.430;10.586;2022-12-05T05:18:54;2.40;91.30
38183;DHT22;23991;52.430;10.586;2022-12-05T05:21:34;2.40;91.30
38183;DHT22;23991;52.430;10.586;2022-12-05T05:24:00;2.40;91.30
38183;DHT22;23991;52.430;10.586;2022-12-05T05:26:27;2.40;91.30
38183;DHT22;23991;52.430;10.586;2022-12-05T05:28:53;2.40;91.20
38183;DHT22;23991;52.430;10.586;2022-12-05T05:31:19;2.40;91.20
38183;DHT22;23991;52.430;10.586;2022-12-05T05:33:49;2.40;91.20
38183;DHT22;23991;52.430;10.586;2022-12-05T05:36:15;2.40;91.20
38183;DHT22;23991;52.430;10.586;2022-12-05T05:38:48;2.40;91.20
38183;DHT22;23991;52.430;10.586;2022-12-05T05:41:16;2.40;91.20
38183;DHT22;23991;52.430;10.586;2022-12-05T05:43:44;2.40;91.20
38183;DHT22;23991;52.430;10.586;2022-12-05T05:46:14;2.40;91.20
38183;DHT22;23991;52.430;10.586;2022-12-05T05:48:40;2.40;91.20
38183;DHT22;23991;52.430;10.586;2022-12-05T05:51:07;2.40;91.20
38183;DHT22;23991;52.430;10.586;2022-12-05T05:53:34;2.40;91.20
38183;DHT22;23991;52.430;10.586;2022-12-05T05:56:04;2.40;91.10
38183;DHT22;23991;52.430;10.586;2022-12-05T05:58:30;2.40;91.10
38183;DHT22;23991;52.430;10.586;2022-12-05T06:01:09;2.40;91.00
38183;DHT22;23991;52.430;10.586;2022-12-05T06:03:36;2.40;91.00
38183;DHT22;23991;52.430;10.586;2022-12-05T06:06:04;2.30;90.90
38183;DHT22;23991;52.430;10.586;2022-12-05T06:08:32;2.30;90.80
38183;DHT22;23991;52.430;10.586;2022-12-05T06:10:58;2.30;90.80
38183;DHT22;23991;52.430;10.586;2022-12-05T06:13:23;2.30;90.80
38183;DHT22;23991;52.430;10.586;2022-12-05T06:15:49;2.20;90.70
38183;DHT22;23991;52.430;10.586;2022-12-05T06:18:15;2.20;90.60
38183;DHT22;23991;52.430;10.586;2022-12-05T06:20:53;2.20;90.60
38183;DHT22;23991;52.430;10.586;2022-12-05T06:23:19;2.10;90.50
38183;DHT22;23991;52.430;10.586;2022-12-05T06:25:49;2.20;90.50
38183;DHT22;23991;52.430;10.586;2022-12-05T06:28:15;2.20;90.50
38183;DHT22;23991;52.430;10.586;2022-12-05T06:30:44;2.20;90.40
38183;DHT22;23991;52.430;10.586;2022-12-05T06:33:13;2.20;90.20
38183;DHT22;23991;52.430;10.586;2022-12-05T06:35:38;2.20;90.20
38183;DHT22;23991;52.430;10.586;2022-12-05T06:38:05;2.20;90.00
38183;DHT22;23991;52.430;10.586;2022-12-05T06:40:31;2.10;90.00
38183;DHT22;23991;52.430;10.586;2022-12-05T06:42:57;2.10;90.00
38183;DHT22;23991;52.430;10.586;2022-12-05T06:45:22;2.10;89.90
38183;DHT22;23991;52.430;10.586;2022-12-05T06:47:50;2.10;89.80
38183;DHT22;23991;52.430;10.586;2022-12-05T06:50:16;2.00;89.70
38183;DHT22;23991;52.430;10.586;2022-12-05T06:52:42;2.00;89.80
38183;DHT22;23991;52.430;10.586;2022-12-05T06:55:08;2.00;89.80
38183;DHT22;23991;52.430;10.586;2022-12-05T06:57:38;2.10;89.80
38183;DHT22;23991;52.430;10.586;2022-12-05T07:00:04;2.10;89.80
38183;DHT22;23991;52.430;10.586;2022-12-05T07:02:50;2.00;89.70
38183;DHT22;23991;52.430;10.586;2022-12-05T07:05:16;2.00;89.70
38183;DHT22;23991;52.430;10.586;2022-12-05T07:07:42;2.00;89.70
38183;DHT22;23991;52.430;10.586;2022-12-05T07:10:08;2.00;89.70
38183;DHT22;23991;52.430;10.586;2022-12-05T07:12:34;2.00;89.60
38183;DHT22;23991;52.430;10.586;2022-12-05T07:15:02;1.90;89.60
38183;DHT22;23991;52.430;10.586;2022-12-05T07:17:28;1.90;89.60
38183;DHT22;23991;52.430;10.586;2022-12-05T07:19:54;1.90;89.60
38183;DHT22;23991;52.430;10.586;2022-12-05T07:22:21;1.90;89.60
38183;DHT22;23991;52.430;10.586;2022-12-05T07:24:49;1.90;89.60
38183;DHT22;23991;52.430;10.586;2022-12-05T07:27:16;1.90;89.70
38183;DHT22;23991;52.430;10.586;2022-12-05T07:29:42;1.90;89.70
38183;DHT22;23991;52.430;10.586;2022-12-05T07:32:08;1.90;89.70
38183;DHT22;23991;52.430;10.586;2022-12-05T07:34:34;1.90;89.70
38183;DHT22;23991;52.430;10.586;2022-12-05T07:37:00;1.80;89.70
38183;DHT22;23991;52.430;10.586;2022-12-05T07:39:25;1.90;89.70
38183;DHT22;23991;52.430;10.586;2022-12-05T07:41:51;1.90;89.70
38183;DHT22;23991;52.430;10.586;2022-12-05T07:44:17;1.80;89.80
38183;DHT22;23991;52.430;10.586;2022-12-05T07:46:43;1.90;89.80
38183;DHT22;23991;52.430;10.586;2022-12-05T07:49:09;1.90;89.80
38183;DHT22;23991;52.430;10.586;2022-12-05T07:51:35;1.80;89.70
38183;DHT22;23991;52.430;10.586;2022-12-05T07:54:01;1.90;89.80
38183;DHT22;23991;52.430;10.586;2022-12-05T07:56:27;1.90;89.80
38183;DHT22;23991;52.430;10.586;2022-12-05T07:58:53;1.90;89.80
38183;DHT22;23991;52.430;10.586;2022-12-05T08:01:23;1.90;89.80
38183;DHT22;23991;52.430;10.586;2022-12-05T08:03:52;1.90;89.70
38183;DHT22;23991;52.430;10.586;2022-12-05T08:06:23;1.90;89.80
38183;DHT22;23991;52.430;10.586;2022-12-05T08:08:49;1.90;89.80
38183;DHT22;23991;52.430;10.586;2022-12-05T08:13:43;2.00;89.80
38183;DHT22;23991;52.430;10.586;2022-12-05T08:16:10;2.00;89.80
38183;DHT22;23991;52.430;10.586;2022-12-05T08:18:36;2.10;89.70
38183;DHT22;23991;52.430;10.586;2022-12-05T08:21:08;2.10;89.70
38183;DHT22;23991;52.430;10.586;2022-12-05T08:23:34;2.20;89.60
38183;DHT22;23991;52.430;10.586;2022-12-05T08:26:01;2.30;89.40
38183;DHT22;23991;52.430;10.586;2022-12-05T08:28:27;2.30;89.10
38183;DHT22;23991;52.430;10.586;2022-12-05T08:30:52;2.40;89.00
38183;DHT22;23991;52.430;10.586;2022-12-05T08:33:18;2.40;88.90
38183;DHT22;23991;52.430;10.586;2022-12-05T08:35:43;2.50;88.60
38183;DHT22;23991;52.430;10.586;2022-12-05T08:38:09;2.60;88.30
38183;DHT22;23991;52.430;10.586;2022-12-05T08:40:35;2.60;88.10
38183;DHT22;23991;52.430;10.586;2022-12-05T08:43:00;2.70;87.60
38183;DHT22;23991;52.430;10.586;2022-12-05T08:45:26;2.70;87.40
38183;DHT22;23991;52.430;10.586;2022-12-05T08:47:51;2.80;87.20
38183;DHT22;23991;52.430;10.586;2022-12-05T08:50:17;2.80;87.00
38183;DHT22;23991;52.430;10.586;2022-12-05T08:52:42;2.90;86.80
38183;DHT22;23991;52.430;10.586;2022-12-05T08:55:08;3.00;86.60
38183;DHT22;23991;52.430;10.586;2022-12-05T08:57:34;3.00;86.10
38183;DHT22;23991;52.430;10.586;2022-12-05T08:59:59;3.10;85.90
38183;DHT22;23991;52.430;10.586;2022-12-05T09:02:25;3.20;85.60
38183;DHT22;23991;52.430;10.586;2022-12-05T09:04:51;3.20;85.30
38183;DHT22;23991;52.430;10.586;2022-12-05T09:07:16;3.20;85.10
38183;DHT22;23991;52.430;10.586;2022-12-05T09:09:42;3.30;85.00
38183;DHT22;23991;52.430;10.586;2022-12-05T09:12:08;3.40;84.70
38183;DHT22;23991;52.430;10.586;2022-12-05T09:14:34;3.40;84.60
38183;DHT22;23991;52.430;10.586;2022-12-05T09:17:00;3.40;84.20
38183;DHT22;23991;52.430;10.586;2022-12-05T09:19:26;3.40;84.20
38183;DHT22;23991;52.430;10.586;2022-12-05T09:21:53;3.50;84.10
38183;DHT22;23991;52.430;10.586;2022-12-05T09:24:19;3.50;83.80
38183;DHT22;23991;52.430;10.586;2022-12-05T09:26:45;3.60;83.40
38183;DHT22;23991;52.430;10.586;2022-12-05T09:29:11;3.70;83.20
38183;DHT22;23991;52.430;10.586;2022-12-05T09:31:38;3.80;83.00
38183;DHT22;23991;52.430;10.586;2022-12-05T09:34:04;3.80;82.70
38183;DHT22;23991;52.430;10.586;2022-12-05T09:36:30;3.90;82.60
38183;DHT22;23991;52.430;10.586;2022-12-05T09:39:03;3.80;82.20
38183;DHT22;23991;52.430;10.586;2022-12-05T09:52:30;4.10;81.40
38183;DHT22;23991;52.430;10.586;2022-12-05T09:55:04;4.10;81.10
38183;DHT22;23991;52.430;10.586;2022-12-05T09:57:36;4.10;81.00
38183;DHT22;23991;52.430;10.586;2022-12-05T10:00:04;4.10;81.00
38183;DHT22;23991;52.430;10.586;2022-12-05T10:02:49;4.10;81.10
38183;DHT22;23991;52.430;10.586;2022-12-05T10:05:36;4.20;81.00
38183;DHT22;23991;52.430;10.586;2022-12-05T10:08:25;4.40;80.60
38183;DHT22;23991;52.430;10.586;2022-12-05T10:11:18;4.30;80.70
38183;DHT22;23991;52.430;10.586;2022-12-05T10:16:48;4.30;80.60
38183;DHT22;23991;52.430;10.586;2022-12-05T10:19:32;4.40;80.30
38183;DHT22;23991;52.430;10.586;2022-12-05T10:22:07;4.40;80.40
38183;DHT22;23991;52.430;10.586;2022-12-05T10:24:42;4.50;80.20
38183;DHT22;23991;52.430;10.586;2022-12-05T10:27:15;4.60;79.90
38183;DHT22;23991;52.430;10.586;2022-12-05T10:29:49;4.50;79.70
38183;DHT22;23991;52.430;10.586;2022-12-05T10:32:22;4.50;79.80
38183;DHT22;23991;52.430;10.586;2022-12-05T10:34:53;4.60;79.80
38183;DHT22;23991;52.430;10.586;2022-12-05T10:37:24;4.60;79.70
38183;DHT22;23991;52.430;10.586;2022-12-05T10:39:51;4.80;79.20
38183;DHT22;23991;52.430;10.586;2022-12-05T10:42:28;4.80;79.20
38183;DHT22;23991;52.430;10.586;2022-12-05T10:45:03;4.80;79.20
38183;DHT22;23991;52.430;10.586;2022-12-05T10:47:30;4.90;78.80
38183;DHT22;23991;52.430;10.586;2022-12-05T10:50:03;5.00;78.20
38183;DHT22;23991;52.430;10.586;2022-12-05T10:52:29;5.10;78.20
38183;DHT22;23991;52.430;10.586;2022-12-05T10:55:01;5.20;77.80
38183;DHT22;23991;52.430;10.586;2022-12-05T10:57:28;5.10;77.50
38183;DHT22;23991;52.430;10.586;2022-12-05T10:59:57;5.10;77.50
38183;DHT22;23991;52.430;10.586;2022-12-05T11:02:33;5.10;77.40
38183;DHT22;23991;52.430;10.586;2022-12-05T11:04:59;5.20;77.10
38183;DHT22;23991;52.430;10.586;2022-12-05T11:07:46;5.30;76.70
38183;DHT22;23991;52.430;10.586;2022-12-05T11:10:33;5.30;76.80
38183;DHT22;23991;52.430;10.586;2022-12-05T11:12:59;5.30;76.40
38183;DHT22;23991;52.430;10.586;2022-12-05T11:15:30;5.30;76.40
38183;DHT22;23991;52.430;10.586;2022-12-05T11:18:15;5.30;76.40
38183;DHT22;23991;52.430;10.586;2022-12-05T11:20:41;5.10;76.80
38183;DHT22;23991;52.430;10.586;2022-12-05T11:25:47;5.10;77.50
38183;DHT22;23991;52.430;10.586;2022-12-05T11:30:57;5.20;77.30
38183;DHT22;23991;52.430;10.586;2022-12-05T11:33:25;5.20;77.40
38183;DHT22;23991;52.430;10.586;2022-12-05T11:35:57;5.20;77.30
38183;DHT22;23991;52.430;10.586;2022-12-05T11:38:27;5.40;77.00
38183;DHT22;23991;52.430;10.586;2022-12-05T11:46:40;5.50;76.30
38183;DHT22;23991;52.430;10.586;2022-12-05T12:11:11;6.00;74.70
38183;DHT22;23991;52.430;10.586;2022-12-05T12:14:00;5.90;75.30
38183;DHT22;23991;52.430;10.586;2022-12-05T12:36:27;6.20;73.50
38183;DHT22;23991;52.430;10.586;2022-12-05T12:39:25;6.20;73.70
38183;DHT22;23991;52.430;10.586;2022-12-05T12:42:12;6.20;73.10
38183;DHT22;23991;52.430;10.586;2022-12-05T12:44:58;6.20;73.00
38183;DHT22;23991;52.430;10.586;2022-12-05T12:50:33;6.10;73.00
38183;DHT22;23991;52.430;10.586;2022-12-05T13:06:43;6.30;73.00
38183;DHT22;23991;52.430;10.586;2022-12-05T13:11:51;6.30;73.20
38183;DHT22;23991;52.430;10.586;2022-12-05T13:14:20;6.50;72.80
38183;DHT22;23991;52.430;10.586;2022-12-05T13:16:51;6.40;72.50
38183;DHT22;23991;52.430;10.586;2022-12-05T13:22:06;6.20;73.20
38183;DHT22;23991;52.430;10.586;2022-12-05T13:24:33;6.30;73.20
38183;DHT22;23991;52.430;10.586;2022-12-05T13:27:06;6.50;72.70
38183;DHT22;23991;52.430;10.586;2022-12-05T13:29:36;6.60;72.30
38183;DHT22;23991;52.430;10.586;2022-12-05T13:32:06;6.70;71.70
38183;DHT22;23991;52.430;10.586;2022-12-05T13:34:48;6.60;72.10
38183;DHT22;23991;52.430;10.586;2022-12-05T13:37:29;6.60;72.20
38183;DHT22;23991;52.430;10.586;2022-12-05T13:43:16;6.30;72.50
38183;DHT22;23991;52.430;10.586;2022-12-05T13:46:01;6.30;72.80
38183;DHT22;23991;52.430;10.586;2022-12-05T13:48:30;6.20;73.20
38183;DHT22;23991;52.430;10.586;2022-12-05T13:51:09;6.20;73.40
38183;DHT22;23991;52.430;10.586;2022-12-05T13:53:48;6.10;73.50
38183;DHT22;23991;52.430;10.586;2022-12-05T14:03:58;6.20;73.90
38183;DHT22;23991;52.430;10.586;2022-12-05T14:20:06;5.90;74.30
38183;DHT22;23991;52.430;10.586;2022-12-05T14:22:45;5.90;74.60
38183;DHT22;23991;52.430;10.586;2022-12-05T14:34:21;6.10;74.30
38183;DHT22;23991;52.430;10.586;2022-12-05T14:37:25;6.10;73.90
38183;DHT22;23991;52.430;10.586;2022-12-05T14:39:55;6.10;74.00
38183;DHT22;23991;52.430;10.586;2022-12-05T14:42:41;6.10;74.40
38183;DHT22;23991;52.430;10.586;2022-12-05T14:45:37;6.00;74.70
38183;DHT22;23991;52.430;10.586;2022-12-05T14:48:26;5.90;74.50
38183;DHT22;23991;52.430;10.586;2022-12-05T14:50:55;6.00;74.70
38183;DHT22;23991;52.430;10.586;2022-12-05T14:53:39;6.20;74.50
38183;DHT22;23991;52.430;10.586;2022-12-05T14:56:19;6.10;73.80
38183;DHT22;23991;52.430;10.586;2022-12-05T14:59:21;6.00;74.40
38183;DHT22;23991;52.430;10.586;2022-12-05T15:01:57;5.90;74.60
38183;DHT22;23991;52.430;10.586;2022-12-05T15:04:43;6.00;74.70
38183;DHT22;23991;52.430;10.586;2022-12-05T15:07:20;6.10;74.40
38183;DHT22;23991;52.430;10.586;2022-12-05T15:13:21;6.00;74.50
38183;DHT22;23991;52.430;10.586;2022-12-05T15:16:13;5.80;74.80
38183;DHT22;23991;52.430;10.586;2022-12-05T15:18:48;5.60;75.60
38183;DHT22;23991;52.430;10.586;2022-12-05T15:24:00;5.40;76.50
38183;DHT22;23991;52.430;10.586;2022-12-05T15:26:52;5.40;76.50
38183;DHT22;23991;52.430;10.586;2022-12-05T15:31:56;5.30;77.30
38183;DHT22;23991;52.430;10.586;2022-12-05T15:37:25;5.10;77.90
38183;DHT22;23991;52.430;10.586;2022-12-05T15:40:01;5.10;78.10
38183;DHT22;23991;52.430;10.586;2022-12-05T15:42:49;5.10;78.00
38183;DHT22;23991;52.430;10.586;2022-12-05T15:45:22;4.90;78.50
38183;DHT22;23991;52.430;10.586;2022-12-05T15:47:51;4.90;78.90
38183;DHT22;23991;52.430;10.586;2022-12-05T15:53:25;4.80;79.50
38183;DHT22;23991;52.430;10.586;2022-12-05T15:55:57;4.70;79.60
38183;DHT22;23991;52.430;10.586;2022-12-05T16:06:21;4.50;80.20
38183;DHT22;23991;52.430;10.586;2022-12-05T16:08:48;4.50;80.30
38183;DHT22;23991;52.430;10.586;2022-12-05T16:11:15;4.40;80.40
38183;DHT22;23991;52.430;10.586;2022-12-05T16:13:50;4.40;80.60
38183;DHT22;23991;52.430;10.586;2022-12-05T16:16:19;4.40;80.80
38183;DHT22;23991;52.430;10.586;2022-12-05T16:18:53;4.30;80.80
38183;DHT22;23991;52.430;10.586;2022-12-05T16:21:36;4.30;81.10
38183;DHT22;23991;52.430;10.586;2022-12-05T16:24:07;4.30;81.30
38183;DHT22;23991;52.430;10.586;2022-12-05T16:26:38;4.30;81.40
38183;DHT22;23991;52.430;10.586;2022-12-05T16:29:05;4.30;81.30
38183;DHT22;23991;52.430;10.586;2022-12-05T16:31:32;4.30;81.30
38183;DHT22;23991;52.430;10.586;2022-12-05T16:34:06;4.20;81.50
38183;DHT22;23991;52.430;10.586;2022-12-05T16:36:33;4.10;81.70
38183;DHT22;23991;52.430;10.586;2022-12-05T16:39:04;4.10;82.10
38183;DHT22;23991;52.430;10.586;2022-12-05T16:41:35;4.00;82.10
38183;DHT22;23991;52.430;10.586;2022-12-05T16:44:02;3.90;82.30
38183;DHT22;23991;52.430;10.586;2022-12-05T16:49:24;4.00;82.60
38183;DHT22;23991;52.430;10.586;2022-12-05T16:54:32;3.90;82.80
38183;DHT22;23991;52.430;10.586;2022-12-05T16:56:58;3.80;83.00
38183;DHT22;23991;52.430;10.586;2022-12-05T16:59:31;3.80;83.10
38183;DHT22;23991;52.430;10.586;2022-12-05T17:01:57;3.80;83.40
38183;DHT22;23991;52.430;10.586;2022-12-05T17:04:23;3.70;83.50
38183;DHT22;23991;52.430;10.586;2022-12-05T17:06:49;3.70;83.60
38183;DHT22;23991;52.430;10.586;2022-12-05T17:09:14;3.70;83.70
38183;DHT22;23991;52.430;10.586;2022-12-05T17:11:42;3.70;83.70
38183;DHT22;23991;52.430;10.586;2022-12-05T17:14:13;3.60;83.90
38183;DHT22;23991;52.430;10.586;2022-12-05T17:16:39;3.60;84.20
38183;DHT22;23991;52.430;10.586;2022-12-05T17:19:05;3.50;84.30
38183;DHT22;23991;52.430;10.586;2022-12-05T17:21:32;3.60;84.50
38183;DHT22;23991;52.430;10.586;2022-12-05T17:23:58;3.50;84.60
38183;DHT22;23991;52.430;10.586;2022-12-05T17:26:25;3.50;84.70
38183;DHT22;23991;52.430;10.586;2022-12-05T17:28:51;3.50;84.90
38183;DHT22;23991;52.430;10.586;2022-12-05T17:31:20;3.50;84.90
38183;DHT22;23991;52.430;10.586;2022-12-05T17:33:47;3.50;85.00
38183;DHT22;23991;52.430;10.586;2022-12-05T17:36:13;3.40;85.20
38183;DHT22;23991;52.430;10.586;2022-12-05T17:38:40;3.40;85.10
38183;DHT22;23991;52.430;10.586;2022-12-05T17:41:06;3.40;85.20
38183;DHT22;23991;52.430;10.586;2022-12-05T17:43:32;3.50;85.20
38183;DHT22;23991;52.430;10.586;2022-12-05T17:46:01;3.40;85.20
38183;DHT22;23991;52.430;10.586;2022-12-05T17:48:27;3.40;85.50
38183;DHT22;23991;52.430;10.586;2022-12-05T17:50:53;3.40;85.60
38183;DHT22;23991;52.430;10.586;2022-12-05T17:53:22;3.40;85.70
38183;DHT22;23991;52.430;10.586;2022-12-05T17:55:48;3.40;85.60
38183;DHT22;23991;52.430;10.586;2022-12-05T17:58:14;3.40;85.70
38183;DHT22;23991;52.430;10.586;2022-12-05T18:00:41;3.40;85.80
38183;DHT22;23991;52.430;10.586;2022-12-05T18:03:16;3.30;85.80
38183;DHT22;23991;52.430;10.586;2022-12-05T18:05:43;3.30;86.00
38183;DHT22;23991;52.430;10.586;2022-12-05T18:08:09;3.40;86.00
38183;DHT22;23991;52.430;10.586;2022-12-05T18:10:35;3.30;86.10
38183;DHT22;23991;52.430;10.586;2022-12-05T18:13:02;3.30;86.30
38183;DHT22;23991;52.430;10.586;2022-12-05T18:15:27;3.30;86.20
38183;DHT22;23991;52.430;10.586;2022-12-05T18:17:53;3.30;86.30
38183;DHT22;23991;52.430;10.586;2022-12-05T18:20:20;3.20;86.50
38183;DHT22;23991;52.430;10.586;2022-12-05T18:22:47;3.20;86.60
38183;DHT22;23991;52.430;10.586;2022-12-05T18:25:15;3.20;86.60
38183;DHT22;23991;52.430;10.586;2022-12-05T18:27:41;3.20;86.70
38183;DHT22;23991;52.430;10.586;2022-12-05T18:30:10;3.20;86.80
38183;DHT22;23991;52.430;10.586;2022-12-05T18:32:38;3.20;86.80
38183;DHT22;23991;52.430;10.586;2022-12-05T18:35:04;3.20;86.90
38183;DHT22;23991;52.430;10.586;2022-12-05T18:37:36;3.20;87.10
38183;DHT22;23991;52.430;10.586;2022-12-05T18:40:02;3.20;87.10
38183;DHT22;23991;52.430;10.586;2022-12-05T18:42:28;3.10;87.20
38183;DHT22;23991;52.430;10.586;2022-12-05T18:44:53;3.20;87.10
38183;DHT22;23991;52.430;10.586;2022-12-05T18:47:19;3.20;87.20
38183;DHT22;23991;52.430;10.586;2022-12-05T18:49:45;3.20;87.20
38183;DHT22;23991;52.430;10.586;2022-12-05T18:52:10;3.10;87.30
38183;DHT22;23991;52.430;10.586;2022-12-05T18:54:36;3.10;87.40
38183;DHT22;23991;52.430;10.586;2022-12-05T18:57:02;3.10;87.40
38183;DHT22;23991;52.430;10.586;2022-12-05T18:59:27;3.10;87.40